Time;durP1;ratioP1;P1;durP2;ratioP2;P2;SDS_P1;SDS_P2;PMS_P1;PMS_P2;Temp;Humidity;BMP_temperature;BMP_pressure;BME280_temperature;BME280_humidity;BME280_pressure;Samples;Min_cycle;Max_cycle;Signal;HPM_P1;HPM_P2
2023/04/13 00:00:46;;;;;;;34.85;18.00;;;2.90;99.90;;;;;;4995009;28;20065;-78
2023/04/13 00:03:15;;;;;;;24.02;16.17;;;2.90;99.90;;;;;;4995549;28;20687;-78
2023/04/13 00:05:44;;;;;;;25.40;14.55;;;3.10;99.90;;;;;;5007197;28;20753;-78
2023/04/13 00:08:12;;;;;;;24.23;14.57;;;3.20;99.90;;;;;;5011915;28;20062;-78
2023/04/13 00:10:41;;;;;;;16.25;10.25;;;3.30;99.90;;;;;;5002241;28;20049;-78
2023/04/13 00:13:09;;;;;;;12.32;7.35;;;3.50;99.90;;;;;;5016497;28;20675;-79
2023/04/13 00:15:40;;;;;;;11.98;5.80;;;3.70;99.90;;;;;;5005208;28;20052;-79
2023/04/13 00:18:07;;;;;;;9.82;5.68;;;3.90;99.90;;;;;;4980796;28;20054;-78
2023/04/13 00:20:34;;;;;;;14.43;5.72;;;4.10;99.90;;;;;;4998215;28;20063;-78
2023/04/13 00:23:01;;;;;;;8.70;5.25;;;4.20;99.90;;;;;;4989339;28;20538;-79
2023/04/13 00:25:29;;;;;;;10.00;4.85;;;4.20;99.90;;;;;;4999698;28;20041;-78
2023/04/13 00:27:56;;;;;;;6.70;5.85;;;4.30;99.90;;;;;;5015253;28;20766;-79
2023/04/13 00:30:22;;;;;;;9.07;5.60;;;4.40;99.90;;;;;;5005103;28;20038;-79
2023/04/13 00:32:49;;;;;;;6.25;5.68;;;4.30;99.90;;;;;;4986271;28;20137;-79
2023/04/13 00:35:23;;;;;;;12.55;6.70;;;4.40;99.90;;;;;;4998123;28;20045;-78
2023/04/13 00:37:51;;;;;;;7.37;6.67;;;4.40;99.90;;;;;;5003256;28;20636;-78
2023/04/13 00:40:19;;;;;;;6.68;6.10;;;4.40;99.90;;;;;;5000689;28;20046;-78
2023/04/13 00:42:47;;;;;;;7.93;7.03;;;4.30;99.90;;;;;;4996790;28;20072;-78
2023/04/13 00:45:15;;;;;;;8.43;7.47;;;4.20;99.90;;;;;;4985346;28;20046;-78
2023/04/13 00:47:47;;;;;;;9.98;8.27;;;4.20;99.90;;;;;;4999083;28;20096;-78
2023/04/13 00:50:19;;;;;;;9.57;8.60;;;4.10;99.90;;;;;;5015274;28;20452;-78
2023/04/13 00:52:47;;;;;;;11.20;8.60;;;4.00;99.90;;;;;;5009124;28;20042;-78
2023/04/13 00:55:19;;;;;;;9.95;8.95;;;3.80;99.90;;;;;;4985070;28;21551;-78
2023/04/13 00:57:48;;;;;;;10.05;9.05;;;3.70;99.90;;;;;;5014588;28;20046;-79
2023/04/13 01:00:16;;;;;;;12.32;8.60;;;3.60;99.90;;;;;;4984108;28;20495;-79
2023/04/13 01:02:43;;;;;;;11.95;8.43;;;3.50;99.90;;;;;;4984323;28;20133;-77
2023/04/13 01:05:13;;;;;;;11.82;9.07;;;3.40;99.90;;;;;;5021254;28;20049;-78
2023/04/13 01:08:00;;;;;;;13.30;8.73;;;3.30;99.90;;;;;;5000035;28;20050;-80
2023/04/13 01:10:46;;;;;;;16.08;10.02;;;3.40;99.90;;;;;;5011052;28;20141;-78
2023/04/13 01:13:29;;;;;;;18.77;9.52;;;3.30;99.90;;;;;;4985024;28;20093;-78
2023/04/13 01:16:06;;;;;;;14.60;9.85;;;3.30;99.90;;;;;;5013225;28;20049;-78
2023/04/13 01:18:38;;;;;;;18.48;10.25;;;3.30;99.90;;;;;;4995192;28;20162;-78
2023/04/13 01:21:10;;;;;;;23.15;11.90;;;3.40;99.90;;;;;;4991563;28;20042;-78
2023/04/13 01:23:50;;;;;;;24.70;12.00;;;3.40;99.90;;;;;;4986346;28;20050;-78
2023/04/13 01:26:21;;;;;;;29.52;12.63;;;3.40;99.90;;;;;;4997204;28;20133;-79
2023/04/13 01:28:50;;;;;;;25.67;14.50;;;3.40;99.90;;;;;;4997549;28;20108;-79
2023/04/13 01:31:18;;;;;;;28.10;14.70;;;3.40;99.90;;;;;;4997815;28;20050;-77
2023/04/13 01:33:46;;;;;;;33.75;16.25;;;3.40;99.90;;;;;;5018339;28;20064;-78
2023/04/13 01:36:13;;;;;;;31.13;15.95;;;3.50;99.90;;;;;;5018173;28;20156;-78
2023/04/13 01:38:40;;;;;;;34.70;15.95;;;3.50;99.90;;;;;;5007854;28;20050;-79
2023/04/13 01:41:09;;;;;;;30.48;14.65;;;3.50;99.90;;;;;;5017180;28;20053;-78
2023/04/13 01:43:39;;;;;;;25.80;14.55;;;3.60;99.90;;;;;;5023459;28;20450;-78
2023/04/13 01:46:10;;;;;;;27.63;15.48;;;3.50;99.90;;;;;;4983046;28;20466;-78
2023/04/13 01:48:49;;;;;;;27.58;14.60;;;3.60;99.90;;;;;;4998422;28;20054;-78
2023/04/13 01:51:30;;;;;;;27.30;15.00;;;3.60;99.90;;;;;;5012012;28;20122;-76
2023/04/13 01:54:11;;;;;;;;;;;3.60;99.90;;;;;;4987026;28;20050;-79
2023/04/13 01:56:39;;;;;;;28.27;14.02;;;3.60;99.90;;;;;;5014330;28;19921;-78
2023/04/13 01:59:07;;;;;;;21.55;12.70;;;3.60;99.90;;;;;;4994043;28;20057;-79
2023/04/13 02:01:37;;;;;;;19.33;10.55;;;3.60;99.90;;;;;;5005171;28;20103;-80
2023/04/13 02:04:06;;;;;;;23.85;14.65;;;3.70;99.90;;;;;;5015734;28;20066;-78
2023/04/13 02:06:33;;;;;;;20.70;12.02;;;3.70;99.90;;;;;;5015106;28;20526;-78
2023/04/13 02:09:05;;;;;;;23.42;13.05;;;3.70;99.90;;;;;;5014464;28;20069;-78
2023/04/13 02:11:33;;;;;;;23.30;13.18;;;3.70;99.90;;;;;;5018855;28;20137;-77
2023/04/13 02:14:03;;;;;;;27.98;14.05;;;3.70;99.90;;;;;;5013511;28;20127;-80
2023/04/13 02:16:30;;;;;;;24.10;13.65;;;3.70;99.90;;;;;;5015482;28;20041;-78
2023/04/13 02:18:58;;;;;;;25.77;12.57;;;3.70;99.90;;;;;;4995016;28;20061;-78
2023/04/13 02:21:25;;;;;;;16.45;10.80;;;3.70;99.90;;;;;;4994539;28;20038;-78
2023/04/13 02:23:52;;;;;;;21.95;11.32;;;3.70;99.90;;;;;;4981174;28;20041;-77
2023/04/13 02:26:20;;;;;;;21.77;11.50;;;3.80;99.90;;;;;;4993411;28;20050;-77
2023/04/13 02:28:50;;;;;;;17.13;11.10;;;3.80;99.90;;;;;;4985314;28;20046;-77
2023/04/13 02:31:18;;;;;;;17.45;10.88;;;3.80;99.90;;;;;;5006197;28;20056;-78
2023/04/13 02:33:46;;;;;;;23.98;12.38;;;3.80;99.90;;;;;;5004406;28;20053;-77
2023/04/13 02:36:14;;;;;;;17.85;10.73;;;3.80;99.90;;;;;;5011911;28;20112;-79
2023/04/13 02:38:48;;;;;;;23.02;10.65;;;3.80;99.90;;;;;;5001989;28;20052;-77
2023/04/13 02:41:23;;;;;;;17.10;9.63;;;3.90;99.90;;;;;;4989272;28;20108;-78
2023/04/13 02:43:51;;;;;;;16.35;9.40;;;3.90;99.90;;;;;;4984006;28;20111;-78
2023/04/13 02:46:20;;;;;;;16.38;8.32;;;3.90;99.90;;;;;;5008453;28;20311;-78
2023/04/13 02:48:51;;;;;;;11.48;7.60;;;3.90;99.90;;;;;;4999902;28;20097;-77
2023/04/13 02:51:18;;;;;;;16.60;9.27;;;3.90;99.90;;;;;;5023821;28;20056;-78
2023/04/13 02:53:45;;;;;;;13.70;8.80;;;3.90;99.90;;;;;;5001141;28;20558;-80
2023/04/13 02:56:13;;;;;;;14.07;7.65;;;3.90;99.90;;;;;;5013387;28;20046;-77
2023/04/13 02:58:40;;;;;;;19.50;7.88;;;3.90;99.90;;;;;;5004635;28;20052;-78
2023/04/13 03:01:13;;;;;;;9.83;7.30;;;3.90;99.90;;;;;;5021399;28;20095;-77
2023/04/13 03:03:40;;;;;;;10.80;7.40;;;3.90;99.90;;;;;;5005328;28;20292;-78
2023/04/13 03:06:08;;;;;;;12.32;7.28;;;3.90;99.90;;;;;;5014050;28;20116;-78
2023/04/13 03:08:45;;;;;;;10.20;7.90;;;3.90;99.90;;;;;;4991924;28;20049;-77
2023/04/13 03:11:17;;;;;;;9.38;6.65;;;4.00;99.90;;;;;;5017271;28;20108;-78
2023/04/13 03:13:52;;;;;;;9.30;6.32;;;4.00;99.90;;;;;;5002879;28;20086;-77
2023/04/13 03:16:19;;;;;;;9.40;7.20;;;4.10;99.90;;;;;;4980510;28;20695;-80
2023/04/13 03:18:46;;;;;;;9.32;5.63;;;4.10;99.90;;;;;;4980612;28;20050;-77
2023/04/13 03:21:13;;;;;;;16.92;6.50;;;4.10;99.90;;;;;;4978370;28;20046;-81
2023/04/13 03:23:54;;;;;;;9.45;5.65;;;4.20;99.90;;;;;;5011700;28;20037;-78
2023/04/13 03:26:23;;;;;;;10.93;6.13;;;4.20;99.90;;;;;;4983463;28;20045;-78
2023/04/13 03:28:51;;;;;;;8.60;5.88;;;4.30;99.90;;;;;;5012000;28;20050;-79
2023/04/13 03:31:21;;;;;;;5.78;5.18;;;4.30;99.90;;;;;;5001745;28;20076;-78
2023/04/13 03:33:49;;;;;;;11.25;5.32;;;4.30;99.90;;;;;;5013845;28;20129;-78
2023/04/13 03:36:16;;;;;;;9.20;6.25;;;4.40;99.90;;;;;;4980987;28;20045;-80
2023/04/13 03:38:43;;;;;;;12.30;6.68;;;4.40;99.90;;;;;;4979609;28;20140;-78
2023/04/13 03:41:10;;;;;;;9.07;5.05;;;4.40;99.90;;;;;;5011954;28;20045;-81
2023/04/13 03:43:41;;;;;;;7.15;4.65;;;4.40;99.90;;;;;;5003929;28;20041;-80
2023/04/13 03:46:12;;;;;;;6.55;4.63;;;4.40;99.90;;;;;;4993173;28;20050;-79
2023/04/13 03:48:42;;;;;;;6.55;5.30;;;4.50;99.90;;;;;;4985612;28;20058;-78
2023/04/13 03:51:15;;;;;;;5.20;4.70;;;4.50;99.90;;;;;;4989414;28;20049;-78
2023/04/13 03:53:46;;;;;;;5.22;4.40;;;4.50;99.90;;;;;;4980488;28;20100;-78
2023/04/13 03:56:15;;;;;;;5.55;4.30;;;4.60;99.90;;;;;;4987642;28;20038;-78
2023/04/13 03:58:42;;;;;;;7.93;4.97;;;4.60;99.90;;;;;;4977538;28;20046;-79
2023/04/13 04:01:10;;;;;;;5.13;4.63;;;4.60;99.90;;;;;;4998620;28;20155;-77
2023/04/13 04:03:47;;;;;;;5.63;5.03;;;4.60;99.90;;;;;;5007817;28;20054;-78
2023/04/13 04:06:14;;;;;;;5.18;4.40;;;4.60;99.90;;;;;;5010917;28;20066;-79
2023/04/13 04:08:50;;;;;;;5.93;5.40;;;4.60;99.90;;;;;;4993952;28;20044;-77
2023/04/13 04:11:26;;;;;;;6.10;4.97;;;4.60;99.90;;;;;;5010869;28;20045;-78
2023/04/13 04:13:54;;;;;;;4.97;4.38;;;4.70;99.90;;;;;;4978044;28;20049;-78
2023/04/13 04:16:21;;;;;;;8.30;5.20;;;4.70;99.90;;;;;;4992736;28;20038;-79
2023/04/13 04:18:54;;;;;;;5.38;4.97;;;4.70;99.90;;;;;;4981535;28;20141;-78
2023/04/13 04:21:20;;;;;;;4.93;4.53;;;4.70;99.90;;;;;;4978580;28;20042;-79
2023/04/13 04:23:47;;;;;;;7.13;5.00;;;4.70;99.90;;;;;;4999117;28;20047;-79
2023/04/13 04:26:16;;;;;;;6.15;5.53;;;4.70;99.90;;;;;;5010284;28;20061;-78
2023/04/13 04:29:00;;;;;;;5.28;4.97;;;4.70;99.90;;;;;;4997197;28;20555;-79
2023/04/13 04:31:33;;;;;;;;;;;4.70;99.90;;;;;;4981593;28;20863;-78
2023/04/13 04:34:06;;;;;;;7.70;4.78;;;4.70;99.90;;;;;;5001036;28;19933;-80
2023/04/13 04:36:35;;;;;;;6.03;5.43;;;4.70;99.90;;;;;;4992087;28;20141;-78
2023/04/13 04:39:03;;;;;;;7.88;5.70;;;4.70;99.90;;;;;;4995292;28;20104;-80
2023/04/13 04:41:36;;;;;;;7.32;5.43;;;4.80;99.90;;;;;;4997181;28;20045;-78
2023/04/13 04:44:06;;;;;;;5.88;5.38;;;4.80;99.90;;;;;;5010804;28;20042;-78
2023/04/13 04:46:37;;;;;;;5.95;5.55;;;4.80;99.90;;;;;;4979202;28;20046;-78
2023/04/13 04:49:08;;;;;;;5.85;5.45;;;4.80;99.90;;;;;;4991441;28;20740;-77
2023/04/13 04:51:35;;;;;;;8.05;5.60;;;4.80;99.90;;;;;;4999681;28;20106;-77
2023/04/13 04:54:04;;;;;;;5.30;5.00;;;4.80;99.90;;;;;;4990532;28;20049;-78
2023/04/13 04:56:30;;;;;;;5.15;4.65;;;4.80;99.90;;;;;;4985522;28;20046;-79
2023/04/13 04:58:57;;;;;;;7.68;7.13;;;4.90;99.90;;;;;;4982895;28;20065;-78
2023/04/13 05:01:34;;;;;;;7.93;7.13;;;4.90;99.90;;;;;;4999321;28;20050;-80
2023/04/13 05:04:08;;;;;;;7.43;6.88;;;4.90;99.90;;;;;;4980599;28;20600;-80
2023/04/13 05:06:40;;;;;;;7.45;6.88;;;5.00;99.90;;;;;;5000610;28;20673;-78
2023/04/13 05:09:09;;;;;;;7.75;7.15;;;4.90;99.90;;;;;;4986076;28;20052;-78
2023/04/13 05:11:40;;;;;;;7.63;6.80;;;5.00;99.90;;;;;;4999057;28;20482;-80
2023/04/13 05:14:08;;;;;;;8.48;7.68;;;5.00;99.90;;;;;;4998315;28;20044;-78
2023/04/13 05:16:35;;;;;;;7.93;7.32;;;5.00;99.90;;;;;;5015547;28;20034;-78
2023/04/13 05:19:11;;;;;;;;;;;5.00;99.90;;;;;;4990489;28;20074;-79
2023/04/13 05:22:04;;;;;;;8.60;7.65;;;5.00;99.90;;;;;;4982197;28;19925;-77
2023/04/13 05:24:38;;;;;;;8.73;8.05;;;5.10;99.90;;;;;;4984043;28;20046;-79
2023/04/13 05:27:10;;;;;;;9.20;8.70;;;5.10;99.90;;;;;;4998240;28;20046;-78
2023/04/13 05:29:37;;;;;;;8.45;7.93;;;5.20;99.90;;;;;;4996197;28;20041;-79
2023/04/13 05:32:04;;;;;;;9.00;8.40;;;5.30;99.90;;;;;;5005926;28;20531;-79
2023/04/13 05:34:32;;;;;;;9.10;8.50;;;5.30;99.90;;;;;;4997245;28;20792;-77
2023/04/13 05:37:09;;;;;;;9.93;9.20;;;5.30;99.90;;;;;;4990987;28;20042;-80
2023/04/13 05:39:36;;;;;;;9.20;8.70;;;5.40;99.90;;;;;;5003724;28;20069;-81
2023/04/13 05:42:03;;;;;;;9.07;8.57;;;5.40;99.90;;;;;;4998624;28;20050;-79
2023/04/13 05:44:35;;;;;;;10.02;9.15;;;5.50;99.90;;;;;;4997927;28;20046;-78
2023/04/13 05:47:02;;;;;;;9.45;8.93;;;5.50;99.90;;;;;;5014429;28;20116;-79
2023/04/13 05:49:31;;;;;;;9.38;8.77;;;5.50;99.90;;;;;;4982113;28;20430;-77
2023/04/13 05:51:59;;;;;;;10.55;9.75;;;5.60;99.90;;;;;;5017401;28;20080;-78
2023/04/13 05:54:36;;;;;;;9.68;9.20;;;5.60;99.90;;;;;;5015055;28;20069;-79
2023/04/13 05:57:03;;;;;;;11.25;9.63;;;5.60;99.90;;;;;;4996380;28;20042;-78
2023/04/13 05:59:30;;;;;;;10.27;9.68;;;5.70;99.90;;;;;;5014545;28;20145;-79
2023/04/13 06:01:59;;;;;;;11.35;10.73;;;5.70;99.90;;;;;;5008405;28;20081;-78
2023/04/13 06:04:27;;;;;;;10.52;9.98;;;5.70;99.90;;;;;;4990824;28;20049;-78
2023/04/13 06:06:54;;;;;;;11.43;10.50;;;5.70;99.90;;;;;;5012288;28;20113;-78
2023/04/13 06:09:22;;;;;;;10.27;9.52;;;5.70;99.90;;;;;;4992408;28;20728;-79
2023/04/13 06:11:49;;;;;;;10.85;10.05;;;5.60;99.90;;;;;;4989535;28;20043;-80
2023/04/13 06:14:17;;;;;;;10.65;9.85;;;5.70;99.90;;;;;;5016581;28;20030;-80
2023/04/13 06:16:43;;;;;;;9.98;9.30;;;5.60;99.90;;;;;;5004642;28;20061;-78
2023/04/13 06:19:11;;;;;;;10.50;9.90;;;5.70;99.90;;;;;;5017196;28;20050;-81
2023/04/13 06:21:38;;;;;;;10.32;9.52;;;5.70;99.90;;;;;;4988211;28;20100;-78
2023/04/13 06:24:05;;;;;;;10.73;10.02;;;5.70;99.90;;;;;;4999814;28;20038;-82
2023/04/13 06:26:35;;;;;;;10.25;9.55;;;5.80;99.90;;;;;;5014947;28;20046;-77
2023/04/13 06:29:02;;;;;;;11.25;10.43;;;5.80;99.90;;;;;;4995962;28;20046;-79
2023/04/13 06:31:35;;;;;;;12.18;11.32;;;5.90;99.90;;;;;;5017543;28;20530;-78
2023/04/13 06:34:08;;;;;;;11.63;10.98;;;5.90;99.90;;;;;;5001480;28;20089;-76
2023/04/13 06:36:39;;;;;;;12.70;12.00;;;5.90;99.90;;;;;;5000926;28;20103;-78
2023/04/13 06:39:08;;;;;;;14.27;13.13;;;6.00;99.90;;;;;;4989557;28;20038;-77
2023/04/13 06:41:35;;;;;;;12.02;11.43;;;6.00;99.90;;;;;;4990245;28;20415;-77
2023/04/13 06:44:13;;;;;;;13.73;12.68;;;6.10;99.90;;;;;;5004198;28;20160;-79
2023/04/13 06:46:51;;;;;;;13.65;12.85;;;6.20;99.90;;;;;;5010991;28;20133;-78
2023/04/13 06:49:20;;;;;;;14.15;13.23;;;6.30;99.90;;;;;;4999914;28;20046;-78
2023/04/13 06:51:49;;;;;;;13.38;12.77;;;6.30;99.90;;;;;;5004794;28;20523;-76
2023/04/13 06:54:16;;;;;;;15.05;14.20;;;6.30;99.90;;;;;;4992042;28;20038;-77
2023/04/13 06:56:46;;;;;;;14.48;13.68;;;6.30;99.90;;;;;;5000545;28;20096;-77
2023/04/13 06:59:13;;;;;;;17.52;16.05;;;6.40;99.90;;;;;;5003487;28;20073;-77
2023/04/13 07:01:40;;;;;;;16.15;15.23;;;6.40;99.90;;;;;;5015301;28;20080;-78
2023/04/13 07:04:07;;;;;;;14.30;13.70;;;6.50;99.90;;;;;;4984951;28;20246;-78
2023/04/13 07:06:36;;;;;;;14.27;13.55;;;6.50;99.90;;;;;;5020440;28;20775;-77
2023/04/13 07:09:02;;;;;;;14.27;13.30;;;6.50;99.90;;;;;;5001076;28;20041;-78
2023/04/13 07:11:30;;;;;;;15.90;14.70;;;6.50;99.90;;;;;;5013568;28;20539;-77
2023/04/13 07:13:59;;;;;;;15.48;14.60;;;6.60;99.90;;;;;;4984521;28;20077;-77
2023/04/13 07:16:25;;;;;;;15.50;14.50;;;6.50;99.90;;;;;;5010487;28;20045;-77
2023/04/13 07:18:52;;;;;;;14.30;13.52;;;6.40;99.90;;;;;;4989197;28;20042;-77
2023/04/13 07:21:20;;;;;;;14.30;13.30;;;6.50;99.90;;;;;;4985586;28;20110;-76
2023/04/13 07:24:00;;;;;;;14.43;13.65;;;6.50;99.90;;;;;;4978975;28;20061;-78
2023/04/13 07:26:28;;;;;;;14.65;13.63;;;6.50;99.90;;;;;;4985699;28;20050;-78
2023/04/13 07:28:55;;;;;;;14.32;13.43;;;6.50;99.90;;;;;;4967820;28;20056;-77
2023/04/13 07:31:26;;;;;;;14.90;14.00;;;6.40;99.90;;;;;;4972701;28;20504;-77
2023/04/13 07:33:54;;;;;;;15.77;14.82;;;6.50;99.90;;;;;;4995297;28;20051;-77
2023/04/13 07:36:28;;;;;;;16.07;15.07;;;6.50;99.90;;;;;;4992723;28;20049;-76
2023/04/13 07:38:58;;;;;;;18.00;16.77;;;6.60;99.90;;;;;;5017355;28;20781;-77
2023/04/13 07:41:26;;;;;;;16.35;15.55;;;6.70;99.90;;;;;;4992139;28;20738;-78
2023/04/13 07:43:57;;;;;;;19.58;18.45;;;6.70;99.90;;;;;;4983694;28;20108;-78
2023/04/13 07:46:25;;;;;;;18.15;17.08;;;6.80;99.90;;;;;;4994103;28;20111;-78
2023/04/13 07:48:53;;;;;;;20.90;19.42;;;6.90;99.90;;;;;;5008271;28;20050;-79
2023/04/13 07:51:25;;;;;;;17.95;17.15;;;7.00;99.90;;;;;;4999383;28;20077;-78
2023/04/13 07:53:53;;;;;;;19.17;17.85;;;7.00;99.90;;;;;;5010237;28;20050;-78
2023/04/13 07:56:21;;;;;;;20.33;19.05;;;7.00;99.90;;;;;;5016319;28;20038;-78
2023/04/13 07:58:50;;;;;;;19.63;18.63;;;7.10;99.90;;;;;;5016140;28;20046;-78
2023/04/13 08:01:18;;;;;;;23.00;21.17;;;7.10;99.90;;;;;;5020468;28;20894;-78
2023/04/13 08:03:44;;;;;;;23.27;21.75;;;7.20;99.90;;;;;;5001918;28;20056;-79
2023/04/13 08:06:19;;;;;;;22.85;21.55;;;7.20;99.90;;;;;;4997878;28;20046;-82
2023/04/13 08:08:46;;;;;;;23.23;21.58;;;7.20;99.90;;;;;;4986220;28;20050;-78
2023/04/13 08:11:14;;;;;;;21.40;20.35;;;7.20;99.90;;;;;;4992582;28;20495;-79
2023/04/13 08:13:42;;;;;;;22.05;20.65;;;7.30;99.90;;;;;;5000838;28;20526;-78
2023/04/13 08:16:09;;;;;;;21.83;20.55;;;7.40;99.90;;;;;;5012795;28;20037;-79
2023/04/13 08:18:37;;;;;;;23.40;22.20;;;7.50;99.90;;;;;;4988118;28;20110;-78
2023/04/13 08:21:09;;;;;;;25.45;24.08;;;7.60;99.90;;;;;;5008268;28;20667;-78
2023/04/13 08:23:41;;;;;;;24.20;22.80;;;7.80;99.90;;;;;;4988373;28;21345;-79
2023/04/13 08:26:19;;;;;;;25.33;23.92;;;8.00;99.90;;;;;;5001186;28;20458;-80
2023/04/13 08:28:51;;;;;;;25.30;23.90;;;8.20;99.90;;;;;;5000776;28;20092;-77
2023/04/13 08:31:19;;;;;;;28.45;27.05;;;8.80;99.90;;;;;;4999479;28;20049;-78
2023/04/13 08:33:53;;;;;;;28.58;27.17;;;8.90;99.90;;;;;;5013783;28;20046;-77
2023/04/13 08:36:23;;;;;;;31.55;29.85;;;9.00;99.90;;;;;;5012767;28;20034;-78
2023/04/13 08:38:55;;;;;;;33.05;30.65;;;9.10;99.90;;;;;;4988180;28;20054;-79
2023/04/13 08:41:24;;;;;;;27.55;26.17;;;9.00;99.90;;;;;;5000541;28;20034;-78
2023/04/13 08:43:54;;;;;;;27.70;26.10;;;9.00;99.90;;;;;;4985395;28;20045;-79
2023/04/13 08:46:25;;;;;;;27.85;26.45;;;8.90;99.90;;;;;;4995180;28;20073;-78
2023/04/13 08:48:57;;;;;;;29.92;28.42;;;8.80;99.90;;;;;;5010709;28;20054;-78
2023/04/13 08:51:33;;;;;;;29.58;27.65;;;8.80;99.90;;;;;;4999735;28;20084;-79
2023/04/13 08:54:01;;;;;;;30.63;29.02;;;8.80;99.90;;;;;;5018609;28;20120;-77
2023/04/13 08:56:34;;;;;;;28.02;26.40;;;8.60;99.90;;;;;;5000250;28;20129;-77
2023/04/13 08:59:16;;;;;;;27.52;25.95;;;8.40;99.90;;;;;;4983144;28;20287;-78
2023/04/13 09:01:46;;;;;;;28.20;26.67;;;8.40;99.90;;;;;;5016497;28;20493;-78
2023/04/13 09:04:18;;;;;;;29.23;27.52;;;8.40;99.90;;;;;;5013745;28;20104;-78
2023/04/13 09:06:50;;;;;;;28.00;26.40;;;8.40;99.90;;;;;;5013372;28;20049;-77
2023/04/13 09:09:20;;;;;;;27.27;25.55;;;8.50;99.90;;;;;;5017332;28;20061;-78
2023/04/13 09:11:47;;;;;;;28.00;26.60;;;8.50;99.90;;;;;;5001137;28;20523;-77
2023/04/13 09:14:20;;;;;;;28.13;26.73;;;8.70;99.90;;;;;;5002329;28;20042;-76
2023/04/13 09:16:48;;;;;;;28.73;27.27;;;8.70;99.90;;;;;;5000522;28;20046;-76
2023/04/13 09:19:32;;;;;;;30.63;28.80;;;8.80;99.90;;;;;;4987954;28;20076;-76
2023/04/13 09:22:12;;;;;;;32.50;30.80;;;8.80;99.90;;;;;;4991129;28;20053;-77
2023/04/13 09:24:40;;;;;;;37.50;35.50;;;8.70;99.90;;;;;;5002984;28;20045;-76
2023/04/13 09:27:17;;;;;;;32.25;30.45;;;8.60;99.90;;;;;;5013773;28;20042;-78
2023/04/13 09:29:55;;;;;;;30.98;29.02;;;8.80;99.90;;;;;;5020224;28;20105;-77
2023/04/13 09:32:24;;;;;;;31.40;29.60;;;8.90;99.90;;;;;;4988096;28;20038;-78
2023/04/13 09:35:07;;;;;;;30.13;28.52;;;8.90;99.90;;;;;;5018108;28;20065;-77
2023/04/13 09:37:35;;;;;;;32.92;31.13;;;8.80;99.90;;;;;;5022059;28;20595;-77
2023/04/13 09:40:14;;;;;;;32.35;30.58;;;9.30;99.90;;;;;;5019477;28;20101;-77
2023/04/13 09:42:52;;;;;;;33.17;31.35;;;9.60;99.90;;;;;;5008604;28;20104;-77
2023/04/13 09:45:20;;;;;;;33.67;31.95;;;9.50;99.90;;;;;;4998071;28;20042;-76
2023/04/13 09:47:47;;;;;;;32.22;30.30;;;9.80;99.90;;;;;;5017967;28;20140;-77
2023/04/13 09:50:22;;;;;;;33.90;32.28;;;10.10;99.90;;;;;;5014581;28;20149;-76
2023/04/13 09:53:05;;;;;;;36.40;34.58;;;10.40;99.90;;;;;;5009476;28;20042;-75
2023/04/13 09:55:34;;;;;;;35.20;33.38;;;10.50;99.90;;;;;;4980251;28;20042;-77
2023/04/13 09:58:10;;;;;;;36.35;34.42;;;10.90;99.90;;;;;;4992767;28;20053;-75
2023/04/13 10:00:38;;;;;;;36.22;34.22;;;11.40;99.90;;;;;;5010581;28;20038;-79
2023/04/13 10:03:10;;;;;;;35.13;33.22;;;11.50;99.90;;;;;;4995223;28;20040;-77
2023/04/13 10:05:38;;;;;;;31.20;29.27;;;11.70;99.90;;;;;;4996421;28;20052;-75
2023/04/13 10:08:25;;;;;;;31.25;29.10;;;12.00;99.90;;;;;;4989201;28;20047;-76
2023/04/13 10:11:06;;;;;;;28.35;26.55;;;11.50;99.90;;;;;;5016925;28;20041;-76
2023/04/13 10:13:40;;;;;;;30.92;29.02;;;11.20;99.90;;;;;;5002414;28;20541;-78
2023/04/13 10:16:23;;;;;;;30.25;28.35;;;10.90;99.90;;;;;;4997393;28;20044;-76
2023/04/13 10:19:00;;;;;;;34.78;32.97;;;10.50;99.90;;;;;;4998989;28;20100;-79
2023/04/13 10:21:34;;;;;;;38.25;36.25;;;10.00;99.90;;;;;;5015911;28;20034;-75
2023/04/13 10:24:02;;;;;;;39.30;36.90;;;9.90;99.90;;;;;;5012941;28;20050;-77
2023/04/13 10:26:38;;;;;;;38.60;36.50;;;9.70;99.90;;;;;;5012664;28;20080;-76
2023/04/13 10:29:07;;;;;;;37.80;35.70;;;9.60;99.90;;;;;;5015001;28;20045;-75
2023/04/13 10:31:37;;;;;;;32.83;31.02;;;9.50;99.90;;;;;;4984739;28;20042;-76
2023/04/13 10:34:05;;;;;;;34.17;32.30;;;9.50;99.90;;;;;;5002201;28;20046;-75
2023/04/13 10:36:41;;;;;;;36.75;34.65;;;9.40;99.90;;;;;;5003004;28;20040;-74
2023/04/13 10:39:09;;;;;;;31.98;30.27;;;9.30;99.90;;;;;;4987251;28;20728;-77
2023/04/13 10:41:36;;;;;;;32.13;29.85;;;9.20;99.90;;;;;;4998711;28;20037;-77
2023/04/13 10:44:07;;;;;;;31.13;29.08;;;9.10;99.90;;;;;;4999453;28;20503;-76
2023/04/13 10:46:35;;;;;;;29.17;27.58;;;9.10;99.90;;;;;;4998249;28;20044;-77
2023/04/13 10:49:03;;;;;;;29.80;28.25;;;9.20;99.90;;;;;;4999818;28;20050;-76
2023/04/13 10:51:43;;;;;;;28.88;27.38;;;9.50;99.90;;;;;;4981424;28;20034;-78
2023/04/13 10:54:12;;;;;;;28.05;26.55;;;9.60;99.90;;;;;;4996360;28;20042;-76
2023/04/13 10:56:39;;;;;;;28.15;26.55;;;9.70;99.90;;;;;;4994387;28;20126;-76
2023/04/13 10:59:06;;;;;;;29.45;27.38;;;10.10;99.90;;;;;;4999750;28;20045;-77
2023/04/13 11:01:34;;;;;;;31.80;30.02;;;10.20;99.90;;;;;;4990852;28;20069;-76
2023/04/13 11:04:03;;;;;;;30.05;28.35;;;10.20;99.90;;;;;;5001240;28;20950;-75
2023/04/13 11:06:37;;;;;;;34.50;32.30;;;10.20;99.90;;;;;;5003145;28;20041;-75
2023/04/13 11:09:05;;;;;;;30.75;28.77;;;9.90;99.90;;;;;;5001563;28;20664;-78
2023/04/13 11:11:36;;;;;;;29.55;27.88;;;9.90;99.90;;;;;;5009304;28;20057;-75
2023/04/13 11:14:02;;;;;;;36.80;34.60;;;9.80;99.90;;;;;;4983750;28;20801;-75
2023/04/13 11:16:30;;;;;;;36.95;34.90;;;10.10;99.90;;;;;;5015354;28;20048;-75
2023/04/13 11:19:03;;;;;;;34.83;32.92;;;10.40;99.90;;;;;;4999998;28;20044;-78
2023/04/13 11:21:34;;;;;;;37.67;35.67;;;10.80;99.90;;;;;;4969388;28;20034;-74
2023/04/13 11:24:01;;;;;;;35.17;33.13;;;11.10;99.90;;;;;;4995823;28;20072;-75
2023/04/13 11:26:38;;;;;;;36.88;34.72;;;11.30;99.90;;;;;;4995201;28;20046;-74
2023/04/13 11:29:15;;;;;;;35.30;33.40;;;11.20;99.90;;;;;;4999676;28;20710;-74
2023/04/13 11:31:42;;;;;;;38.08;35.85;;;11.40;99.90;;;;;;5012718;28;20497;-77
2023/04/13 11:34:12;;;;;;;35.53;33.53;;;11.30;99.90;;;;;;4984772;28;20038;-74
2023/04/13 11:36:39;;;;;;;29.40;27.50;;;11.30;99.90;;;;;;4998245;28;20069;-75
2023/04/13 11:39:07;;;;;;;29.20;27.23;;;11.10;99.90;;;;;;4983690;28;20034;-76
2023/04/13 11:41:40;;;;;;;30.40;28.60;;;11.10;99.90;;;;;;5010900;28;20053;-76
2023/04/13 11:44:10;;;;;;;31.98;30.08;;;11.10;99.90;;;;;;5006238;28;20125;-77
2023/04/13 11:46:37;;;;;;;30.33;28.60;;;11.30;99.90;;;;;;5011411;28;20169;-76
2023/04/13 11:49:04;;;;;;;40.42;38.00;;;11.50;99.90;;;;;;4990914;28;20042;-74
2023/04/13 11:51:32;;;;;;;36.03;33.92;;;12.10;99.90;;;;;;4991293;28;20045;-76
2023/04/13 11:54:00;;;;;;;40.13;37.65;;;12.40;99.90;;;;;;5013325;28;20052;-76
2023/04/13 11:56:27;;;;;;;37.05;35.05;;;12.30;99.90;;;;;;5016253;28;20042;-77
2023/04/13 11:58:54;;;;;;;35.45;33.50;;;11.80;99.90;;;;;;5015456;28;20037;-76
2023/04/13 12:01:22;;;;;;;35.33;33.47;;;11.50;99.90;;;;;;5011073;28;20043;-74
2023/04/13 12:04:04;;;;;;;39.85;37.05;;;11.40;99.90;;;;;;4997130;28;20065;-77
2023/04/13 12:06:43;;;;;;;36.70;34.50;;;11.50;99.90;;;;;;4999994;28;20046;-75
2023/04/13 12:09:12;;;;;;;39.22;37.03;;;11.70;99.90;;;;;;4996751;28;20072;-74
2023/04/13 12:11:43;;;;;;;32.60;30.80;;;11.90;99.90;;;;;;5011849;28;20041;-77
2023/04/13 12:14:23;;;;;;;32.33;30.25;;;12.30;99.90;;;;;;5015448;28;20070;-76
2023/04/13 12:17:11;;;;;;;32.63;30.73;;;11.70;99.90;;;;;;4979052;28;20038;-75
2023/04/13 12:19:59;;;;;;;37.25;34.95;;;11.20;99.90;;;;;;4995557;28;20037;-74
2023/04/13 12:22:40;;;;;;;36.20;34.15;;;10.90;99.90;;;;;;5014668;28;20072;-75
2023/04/13 12:25:25;;;;;;;32.55;30.77;;;10.80;99.90;;;;;;4997759;28;20116;-76
2023/04/13 12:27:59;;;;;;;34.97;33.03;;;11.20;99.90;;;;;;4992338;28;20077;-75
2023/04/13 12:30:26;;;;;;;40.05;37.75;;;11.30;99.90;;;;;;5001172;28;20038;-76
2023/04/13 12:32:54;;;;;;;38.20;36.13;;;11.40;99.90;;;;;;4997047;28;20132;-75
2023/04/13 12:35:21;;;;;;;36.72;34.83;;;11.60;99.90;;;;;;4998376;28;20033;-77
2023/04/13 12:37:49;;;;;;;38.33;36.30;;;11.90;99.90;;;;;;5013334;28;20175;-75
2023/04/13 12:40:17;;;;;;;37.63;35.22;;;12.10;99.90;;;;;;4994448;28;20043;-76
2023/04/13 12:42:47;;;;;;;37.75;35.45;;;12.40;99.90;;;;;;5006278;28;20076;-77
2023/04/13 12:45:15;;;;;;;37.75;35.65;;;12.20;99.90;;;;;;5014821;28;20046;-75
2023/04/13 12:47:42;;;;;;;37.42;35.33;;;12.20;99.90;;;;;;4979919;28;20125;-74
2023/04/13 12:50:10;;;;;;;39.15;36.85;;;12.40;99.90;;;;;;5012411;28;20046;-74
2023/04/13 12:52:40;;;;;;;40.80;38.40;;;12.30;99.90;;;;;;4999812;28;20053;-79
2023/04/13 12:55:07;;;;;;;42.25;39.47;;;12.50;99.90;;;;;;4996873;28;20046;-78
2023/04/13 12:57:34;;;;;;;35.70;33.47;;;12.70;99.90;;;;;;4996782;28;20066;-74